createdAt,value
2022-09-03T00:00:54.655Z,0.00
2022-09-03T00:01:54.629Z,0.00
2022-09-03T00:02:54.633Z,0.00
2022-09-03T00:03:54.422Z,0.00
2022-09-03T00:04:54.349Z,0.00
2022-09-03T00:05:54.268Z,0.00
2022-09-03T00:06:54.188Z,0.00
2022-09-03T00:07:54.114Z,0.00
2022-09-03T00:08:54.035Z,0.00
2022-09-03T00:09:53.960Z,0.00
2022-09-03T00:10:53.881Z,0.00
2022-09-03T00:11:53.797Z,0.00
2022-09-03T00:12:53.722Z,0.00
2022-09-03T00:13:53.646Z,0.00
2022-09-03T00:14:53.565Z,0.00
2022-09-03T00:15:53.570Z,0.00
2022-09-03T00:16:53.416Z,0.00
2022-09-03T00:17:53.338Z,0.00
2022-09-03T00:18:53.256Z,0.00
2022-09-03T00:19:53.174Z,0.00
2022-09-03T00:20:53.103Z,0.00
2022-09-03T00:21:53.023Z,0.00
2022-09-03T00:22:52.947Z,0.00
2022-09-03T00:23:52.869Z,0.00
2022-09-03T00:24:52.794Z,0.00
2022-09-03T00:25:52.714Z,0.00
2022-09-03T00:26:52.634Z,0.00
2022-09-03T00:27:52.559Z,0.00
2022-09-03T00:28:52.478Z,0.00
2022-09-03T00:29:52.406Z,0.00
2022-09-03T00:30:52.348Z,0.00
2022-09-03T00:31:52.243Z,0.00
2022-09-03T00:32:52.168Z,0.00
2022-09-03T00:33:52.090Z,0.00
2022-09-03T00:34:52.011Z,0.00
2022-09-03T00:35:51.930Z,0.00
2022-09-03T00:36:51.857Z,0.00
2022-09-03T00:37:51.776Z,0.00
2022-09-03T00:38:51.696Z,0.00
2022-09-03T00:39:51.660Z,0.00
2022-09-03T00:40:51.543Z,0.00
2022-09-03T00:41:51.459Z,0.00
2022-09-03T00:42:51.384Z,0.00
2022-09-03T00:43:51.313Z,0.00
2022-09-03T00:44:51.230Z,0.00
2022-09-03T00:45:51.166Z,0.00
2022-09-03T00:46:51.076Z,0.00
2022-09-03T00:47:50.992Z,0.00
2022-09-03T00:48:50.936Z,0.00
2022-09-03T00:49:50.843Z,0.00
2022-09-03T00:50:50.768Z,0.00
2022-09-03T00:51:50.686Z,0.00
2022-09-03T00:52:50.607Z,0.00
2022-09-03T00:53:50.527Z,0.00
2022-09-03T00:54:50.458Z,0.00
2022-09-03T00:55:50.370Z,0.00
2022-09-03T00:56:50.306Z,0.00
2022-09-03T00:57:50.217Z,0.00
2022-09-03T00:58:50.136Z,0.00
2022-09-03T00:59:50.062Z,0.00
2022-09-03T01:00:49.984Z,0.00
2022-09-03T01:01:50.004Z,0.00
2022-09-03T01:02:49.935Z,0.00
2022-09-03T01:03:49.746Z,0.00
2022-09-03T01:04:49.673Z,0.00
2022-09-03T01:05:49.593Z,0.00
2022-09-03T01:06:49.510Z,0.00
2022-09-03T01:07:49.441Z,0.00
2022-09-03T01:08:49.473Z,0.00
2022-09-03T01:09:49.281Z,0.00
2022-09-03T01:10:49.205Z,0.00
2022-09-03T01:11:49.125Z,0.00
2022-09-03T01:12:49.042Z,0.00
2022-09-03T01:13:48.969Z,0.00
2022-09-03T01:14:48.892Z,0.00
2022-09-03T01:15:48.840Z,0.00
2022-09-03T01:16:48.733Z,0.00
2022-09-03T01:17:48.659Z,0.00
2022-09-03T01:18:48.573Z,0.00
2022-09-03T01:19:48.493Z,0.00
2022-09-03T01:20:48.420Z,0.00
2022-09-03T01:21:48.343Z,0.00
2022-09-03T01:22:48.265Z,0.00
2022-09-03T01:23:48.191Z,0.00
2022-09-03T01:24:48.109Z,0.00
2022-09-03T01:25:48.029Z,0.00
2022-09-03T01:26:47.951Z,0.00
2022-09-03T01:27:47.875Z,0.00
2022-09-03T01:28:47.796Z,0.00
2022-09-03T01:29:47.713Z,0.00
2022-09-03T01:30:47.653Z,0.00
2022-09-03T01:31:47.569Z,0.00
2022-09-03T01:32:47.482Z,0.00
2022-09-03T01:33:47.400Z,0.00
2022-09-03T01:34:47.327Z,0.00
2022-09-03T01:35:47.249Z,0.00
2022-09-03T01:36:47.168Z,0.00
2022-09-03T01:37:47.095Z,0.00
2022-09-03T01:38:47.022Z,0.00
2022-09-03T01:39:47.059Z,0.00
2022-09-03T01:40:46.857Z,0.00
2022-09-03T01:41:46.779Z,0.00
2022-09-03T01:42:46.696Z,0.00
2022-09-03T01:43:46.617Z,0.00
2022-09-03T01:44:46.570Z,0.00
2022-09-03T01:45:51.751Z,0.00
2022-09-03T01:46:46.423Z,0.00
2022-09-03T01:47:46.306Z,0.00
2022-09-03T01:48:46.226Z,0.00
2022-09-03T01:49:46.156Z,0.00
2022-09-03T01:50:46.073Z,0.00
2022-09-03T01:51:45.994Z,0.00
2022-09-03T01:52:45.915Z,0.00
2022-09-03T01:53:45.832Z,0.00
2022-09-03T01:54:45.755Z,0.00
2022-09-03T01:55:45.681Z,0.00
2022-09-03T01:56:45.605Z,0.00
2022-09-03T01:57:45.521Z,0.00
2022-09-03T01:58:45.448Z,0.00
2022-09-03T01:59:45.366Z,0.00
2022-09-03T02:00:45.286Z,0.00
2022-09-03T02:01:45.271Z,0.00
2022-09-03T02:02:45.149Z,0.00
2022-09-03T02:03:45.058Z,0.00
2022-09-03T02:04:44.975Z,0.00
2022-09-03T02:05:44.893Z,0.00
2022-09-03T02:06:44.817Z,0.00
2022-09-03T02:07:44.741Z,0.00
2022-09-03T02:08:44.660Z,0.00
2022-09-03T02:09:44.579Z,0.00
2022-09-03T02:10:44.506Z,0.00
2022-09-03T02:11:44.434Z,0.00
2022-09-03T02:12:44.350Z,0.00
2022-09-03T02:13:44.266Z,0.00
2022-09-03T02:14:44.191Z,0.00
2022-09-03T02:15:44.177Z,0.00
2022-09-03T02:16:44.033Z,0.00
2022-09-03T02:17:43.954Z,0.00
2022-09-03T02:18:43.884Z,0.00
2022-09-03T02:19:43.793Z,0.00
2022-09-03T02:20:43.720Z,0.00
2022-09-03T02:21:43.640Z,0.00
2022-09-03T02:22:43.564Z,0.00
2022-09-03T02:23:43.487Z,0.00
2022-09-03T02:24:43.405Z,0.00
2022-09-03T02:25:43.327Z,0.00
2022-09-03T02:26:43.249Z,0.00
2022-09-03T02:27:43.169Z,0.00
2022-09-03T02:28:43.092Z,0.00
2022-09-03T02:29:43.015Z,0.00
2022-09-03T02:30:42.988Z,0.00
2022-09-03T02:31:42.857Z,0.00
2022-09-03T02:32:42.779Z,0.00
2022-09-03T02:33:42.699Z,0.00
2022-09-03T02:34:42.619Z,0.00
2022-09-03T02:35:42.540Z,0.00
2022-09-03T02:36:42.463Z,0.00
2022-09-03T02:37:42.383Z,0.00
2022-09-03T02:38:42.306Z,0.00
2022-09-03T02:39:42.262Z,0.00
2022-09-03T02:40:42.146Z,0.00
2022-09-03T02:41:42.083Z,0.00
2022-09-03T02:42:41.990Z,0.00
2022-09-03T02:43:41.915Z,0.00
2022-09-03T02:44:41.835Z,0.00
2022-09-03T02:45:41.830Z,0.00
2022-09-03T02:46:41.671Z,0.00
2022-09-03T02:47:41.595Z,0.00
2022-09-03T02:48:41.517Z,0.00
2022-09-03T02:49:41.440Z,0.00
2022-09-03T02:50:41.361Z,0.00
2022-09-03T02:51:41.285Z,0.00
2022-09-03T02:52:41.203Z,0.00
2022-09-03T02:53:41.132Z,0.00
2022-09-03T02:54:41.042Z,0.00
2022-09-03T02:55:40.970Z,0.00
2022-09-03T02:56:40.892Z,0.00
2022-09-03T02:57:40.806Z,0.00
2022-09-03T02:58:40.727Z,0.00
2022-09-03T02:59:40.651Z,0.00
2022-09-03T03:00:40.576Z,0.00
2022-09-03T03:01:41.976Z,0.00
2022-09-03T03:02:40.450Z,0.00
2022-09-03T03:03:40.332Z,0.00
2022-09-03T03:04:40.254Z,0.00
2022-09-03T03:05:40.177Z,0.00
2022-09-03T03:06:40.097Z,0.00
2022-09-03T03:07:40.025Z,0.00
2022-09-03T03:08:39.943Z,0.00
2022-09-03T03:09:39.865Z,0.00
2022-09-03T03:10:39.788Z,0.00
2022-09-03T03:11:39.707Z,0.00
2022-09-03T03:12:39.636Z,0.00
2022-09-03T03:13:39.555Z,0.00
2022-09-03T03:14:39.468Z,0.00
2022-09-03T03:15:39.394Z,0.00
2022-09-03T03:16:39.353Z,0.00
2022-09-03T03:17:39.233Z,0.00
2022-09-03T03:18:39.158Z,0.00
2022-09-03T03:19:39.077Z,0.00
2022-09-03T03:20:38.998Z,0.00
2022-09-03T03:21:38.917Z,0.00
2022-09-03T03:22:38.841Z,0.00
2022-09-03T03:23:38.766Z,0.00
2022-09-03T03:24:38.684Z,0.00
2022-09-03T03:25:38.613Z,0.00
2022-09-03T03:26:38.526Z,0.00
2022-09-03T03:27:38.451Z,0.00
2022-09-03T03:28:38.373Z,0.00
2022-09-03T03:29:38.290Z,0.00
2022-09-03T03:30:38.236Z,0.00
2022-09-03T03:31:38.132Z,0.00
2022-09-03T03:32:38.054Z,0.00
2022-09-03T03:33:37.980Z,0.00
2022-09-03T03:34:37.893Z,0.00
2022-09-03T03:35:37.814Z,0.00
2022-09-03T03:36:37.744Z,0.00
2022-09-03T03:37:37.664Z,0.00
2022-09-03T03:38:37.580Z,0.00
2022-09-03T03:39:37.602Z,0.00
2022-09-03T03:40:37.426Z,0.00
2022-09-03T03:41:37.344Z,0.00
2022-09-03T03:42:37.264Z,0.00
2022-09-03T03:43:37.194Z,0.00
2022-09-03T03:44:37.106Z,0.00
2022-09-03T03:45:37.055Z,0.00
2022-09-03T03:46:36.948Z,0.00
2022-09-03T03:47:36.871Z,0.00
2022-09-03T03:48:36.796Z,0.00
2022-09-03T03:49:36.716Z,0.00
2022-09-03T03:50:36.642Z,0.00
2022-09-03T03:51:36.579Z,0.00
2022-09-03T03:52:36.478Z,0.00
2022-09-03T03:53:36.404Z,0.00
2022-09-03T03:54:36.328Z,0.00
2022-09-03T03:55:36.245Z,0.00
2022-09-03T03:56:36.166Z,0.00
2022-09-03T03:57:36.084Z,0.00
2022-09-03T03:58:36.004Z,0.00
2022-09-03T03:59:35.927Z,0.00
2022-09-03T04:00:35.855Z,0.00
2022-09-03T04:01:35.837Z,0.00
2022-09-03T04:02:39.074Z,0.00
2022-09-03T04:03:35.613Z,0.00
2022-09-03T04:04:35.532Z,0.00
2022-09-03T04:05:35.456Z,0.00
2022-09-03T04:06:35.378Z,0.00
2022-09-03T04:07:35.301Z,4.00
2022-09-03T04:08:35.220Z,0.00
2022-09-03T04:09:35.143Z,4.00
2022-09-03T04:10:35.068Z,0.00
2022-09-03T04:11:34.996Z,4.00
2022-09-03T04:12:34.912Z,4.00
2022-09-03T04:13:34.833Z,4.00
2022-09-03T04:14:34.755Z,4.00
2022-09-03T04:15:34.686Z,8.00
2022-09-03T04:16:34.647Z,4.00
2022-09-03T04:17:34.521Z,8.00
2022-09-03T04:18:34.435Z,8.00
2022-09-03T04:19:34.359Z,12.00
2022-09-03T04:20:34.283Z,16.00
2022-09-03T04:21:34.198Z,20.00
2022-09-03T04:22:34.124Z,20.00
2022-09-03T04:23:34.045Z,24.00
2022-09-03T04:24:33.964Z,28.00
2022-09-03T04:25:33.884Z,32.00
2022-09-03T04:26:33.809Z,32.00
2022-09-03T04:27:33.729Z,36.00
2022-09-03T04:28:33.651Z,40.00
2022-09-03T04:29:33.597Z,44.00
2022-09-03T04:30:33.599Z,48.00
2022-09-03T04:31:33.421Z,52.00
2022-09-03T04:32:33.338Z,60.00
2022-09-03T04:33:33.255Z,64.00
2022-09-03T04:34:33.180Z,68.00
2022-09-03T04:35:33.097Z,68.00
2022-09-03T04:36:33.016Z,72.00
2022-09-03T04:37:32.944Z,76.00
2022-09-03T04:38:32.860Z,84.00
2022-09-03T04:39:32.823Z,88.00
2022-09-03T04:40:32.700Z,88.00
2022-09-03T04:41:32.625Z,88.00
2022-09-03T04:42:32.547Z,92.00
2022-09-03T04:43:32.476Z,96.00
2022-09-03T04:44:32.387Z,96.00
2022-09-03T04:45:32.326Z,100.00
2022-09-03T04:46:32.235Z,108.00
2022-09-03T04:47:32.152Z,116.00
2022-09-03T04:48:32.079Z,128.00
2022-09-03T04:49:32.002Z,140.00
2022-09-03T04:50:31.917Z,148.00
2022-09-03T04:51:31.917Z,148.00
2022-09-03T04:52:31.763Z,148.00
2022-09-03T04:53:31.684Z,144.00
2022-09-03T04:54:31.606Z,152.00
2022-09-03T04:55:31.522Z,160.00
2022-09-03T04:56:31.448Z,164.00
2022-09-03T04:57:31.367Z,172.00
2022-09-03T04:58:31.291Z,180.00
2022-09-03T04:59:31.208Z,196.00
2022-09-03T05:00:31.132Z,212.00
2022-09-03T05:01:31.118Z,224.00
2022-09-03T05:02:31.037Z,236.00
2022-09-03T05:03:30.896Z,240.00
2022-09-03T05:04:30.815Z,244.00
2022-09-03T05:05:30.736Z,248.00
2022-09-03T05:06:30.656Z,256.00
2022-09-03T05:07:30.583Z,268.00
2022-09-03T05:08:30.502Z,280.00
2022-09-03T05:09:30.423Z,300.00
2022-09-03T05:10:30.345Z,316.00
2022-09-03T05:11:30.265Z,336.00
2022-09-03T05:12:30.189Z,352.00
2022-09-03T05:13:30.105Z,372.00
2022-09-03T05:14:30.030Z,388.00
2022-09-03T05:15:29.951Z,396.00
2022-09-03T05:16:29.941Z,408.00
2022-09-03T05:17:29.793Z,432.00
2022-09-03T05:18:29.715Z,448.00
2022-09-03T05:19:29.642Z,448.00
2022-09-03T05:20:29.556Z,460.00
2022-09-03T05:21:29.481Z,468.00
2022-09-03T05:22:29.402Z,484.00
2022-09-03T05:23:29.321Z,504.00
2022-09-03T05:24:29.246Z,512.00
2022-09-03T05:25:29.161Z,528.00
2022-09-03T05:26:29.085Z,544.00
2022-09-03T05:27:29.006Z,540.00
2022-09-03T05:28:28.934Z,568.00
2022-09-03T05:29:28.851Z,604.00
2022-09-03T05:30:28.778Z,632.00
2022-09-03T05:31:28.755Z,648.00
2022-09-03T05:32:28.620Z,648.00
2022-09-03T05:33:28.535Z,640.00
2022-09-03T05:34:28.459Z,596.00
2022-09-03T05:35:30.256Z,592.00
2022-09-03T05:36:28.301Z,584.00
2022-09-03T05:37:28.231Z,568.00
2022-09-03T05:38:28.148Z,588.00
2022-09-03T05:39:28.108Z,600.00
2022-09-03T05:40:27.988Z,600.00
2022-09-03T05:41:27.906Z,600.00
2022-09-03T05:42:27.833Z,592.00
2022-09-03T05:43:27.749Z,584.00
2022-09-03T05:44:27.677Z,584.00
2022-09-03T05:45:27.600Z,584.00
2022-09-03T05:46:27.512Z,600.00
2022-09-03T05:47:27.435Z,620.00
2022-09-03T05:48:27.359Z,636.00
2022-09-03T05:49:27.279Z,656.00
2022-09-03T05:50:27.199Z,680.00
2022-09-03T05:51:27.121Z,704.00
2022-09-03T05:52:27.045Z,712.00
2022-09-03T05:53:26.967Z,728.00
2022-09-03T05:54:26.887Z,752.00
2022-09-03T05:55:26.811Z,780.00
2022-09-03T05:56:26.726Z,784.00
2022-09-03T05:57:26.652Z,800.00
2022-09-03T05:58:26.573Z,820.00
2022-09-03T05:59:26.495Z,844.00
2022-09-03T06:00:26.419Z,852.00
2022-09-03T06:01:26.342Z,844.00
2022-09-03T06:02:26.333Z,840.00
2022-09-03T06:03:26.472Z,860.00
2022-09-03T06:04:26.104Z,772.00
2022-09-03T06:05:26.025Z,784.00
2022-09-03T06:06:25.965Z,964.00
2022-09-03T06:07:25.872Z,968.00
2022-09-03T06:08:25.790Z,864.00
2022-09-03T06:09:25.722Z,756.00
2022-09-03T06:10:27.026Z,904.00
2022-09-03T06:11:25.555Z,752.00
2022-09-03T06:12:25.483Z,712.00
2022-09-03T06:13:25.464Z,736.00
2022-09-03T06:14:25.329Z,712.00
2022-09-03T06:15:25.241Z,708.00
2022-09-03T06:16:31.467Z,704.00
2022-09-03T06:17:25.085Z,696.00
2022-09-03T06:18:25.185Z,700.00
2022-09-03T06:19:24.932Z,712.00
2022-09-03T06:20:24.855Z,720.00
2022-09-03T06:21:24.777Z,732.00
2022-09-03T06:22:24.704Z,748.00
2022-09-03T06:23:24.615Z,772.00
2022-09-03T06:24:26.547Z,812.00
2022-09-03T06:25:24.462Z,976.00
2022-09-03T06:26:24.386Z,1000.00
2022-09-03T06:27:24.306Z,964.00
2022-09-03T06:28:24.658Z,1080.00
2022-09-03T06:29:24.147Z,1172.00
2022-09-03T06:30:24.071Z,1192.00
2022-09-03T06:31:24.161Z,1104.00
2022-09-03T06:32:23.914Z,1128.00
2022-09-03T06:33:23.904Z,1252.00
2022-09-03T06:34:23.752Z,1304.00
2022-09-03T06:35:23.682Z,1244.00
2022-09-03T06:36:23.603Z,1380.00
2022-09-03T06:37:23.526Z,1400.00
2022-09-03T06:38:23.490Z,1428.00
2022-09-03T06:39:23.426Z,1448.00
2022-09-03T06:40:23.286Z,1456.00
2022-09-03T06:41:23.211Z,1460.00
2022-09-03T06:42:23.127Z,1448.00
2022-09-03T06:43:23.055Z,1408.00
2022-09-03T06:44:22.977Z,1356.00
2022-09-03T06:45:22.953Z,1312.00
2022-09-03T06:46:22.823Z,1292.00
2022-09-03T06:47:22.736Z,1304.00
2022-09-03T06:48:22.718Z,1268.00
2022-09-03T06:49:22.582Z,1060.00
2022-09-03T06:50:22.510Z,1076.00
2022-09-03T06:51:22.430Z,1036.00
2022-09-03T06:52:22.350Z,1184.00
2022-09-03T06:53:22.272Z,1032.00
2022-09-03T06:54:22.194Z,1012.00
2022-09-03T06:55:22.118Z,964.00
2022-09-03T06:56:22.042Z,996.00
2022-09-03T06:57:21.956Z,1164.00
2022-09-03T06:58:21.934Z,1032.00
2022-09-03T06:59:21.805Z,1276.00
2022-09-03T07:00:21.727Z,1264.00
2022-09-03T07:01:21.810Z,1300.00
2022-09-03T07:02:21.734Z,1308.00
2022-09-03T07:03:21.491Z,1252.00
2022-09-03T07:04:21.414Z,1160.00
2022-09-03T07:05:21.336Z,1312.00
2022-09-03T07:06:21.259Z,1304.00
2022-09-03T07:07:21.182Z,1324.00
2022-09-03T07:08:21.107Z,1308.00
2022-09-03T07:09:21.028Z,1316.00
2022-09-03T07:10:20.953Z,1332.00
2022-09-03T07:11:20.873Z,1344.00
2022-09-03T07:12:20.795Z,1352.00
2022-09-03T07:13:20.716Z,1372.00
2022-09-03T07:14:20.637Z,1384.00
2022-09-03T07:15:20.566Z,1396.00
2022-09-03T07:16:20.538Z,1404.00
2022-09-03T07:17:20.400Z,1412.00
2022-09-03T07:18:20.353Z,1436.00
2022-09-03T07:19:20.243Z,1452.00
2022-09-03T07:20:20.168Z,1456.00
2022-09-03T07:21:20.090Z,1464.00
2022-09-03T07:22:20.015Z,1472.00
2022-09-03T07:23:19.933Z,1480.00
2022-09-03T07:24:19.907Z,1484.00
2022-09-03T07:25:19.792Z,1476.00
2022-09-03T07:26:19.703Z,1460.00
2022-09-03T07:27:19.630Z,1412.00
2022-09-03T07:28:19.590Z,1400.00
2022-09-03T07:29:19.468Z,1384.00
2022-09-03T07:30:19.391Z,1364.00
2022-09-03T07:31:19.316Z,1356.00
2022-09-03T07:32:19.241Z,1372.00
2022-09-03T07:33:19.161Z,1380.00
2022-09-03T07:34:19.083Z,1388.00
2022-09-03T07:35:19.005Z,1400.00
2022-09-03T07:36:18.927Z,1400.00
2022-09-03T07:37:18.852Z,1412.00
2022-09-03T07:38:18.778Z,1412.00
2022-09-03T07:39:18.753Z,1408.00
2022-09-03T07:40:18.616Z,1428.00
2022-09-03T07:41:28.517Z,1408.00
2022-09-03T07:42:18.464Z,1400.00
2022-09-03T07:43:18.392Z,1368.00
2022-09-03T07:44:18.317Z,1444.00
2022-09-03T07:45:18.236Z,1476.00
2022-09-03T07:46:18.225Z,1628.00
2022-09-03T07:47:19.906Z,1720.00
2022-09-03T07:48:18.000Z,1756.00
2022-09-03T07:49:17.920Z,1788.00
2022-09-03T07:50:17.844Z,1816.00
2022-09-03T07:51:17.772Z,1820.00
2022-09-03T07:52:18.262Z,1832.00
2022-09-03T07:53:17.619Z,1852.00
2022-09-03T07:54:17.535Z,1852.00
2022-09-03T07:55:17.469Z,1852.00
2022-09-03T07:56:17.384Z,1840.00
2022-09-03T07:57:17.305Z,1852.00
2022-09-03T07:58:17.225Z,1860.00
2022-09-03T07:59:17.153Z,1856.00
2022-09-03T08:00:17.074Z,1912.00
2022-09-03T08:01:17.049Z,2004.00
2022-09-03T08:02:16.917Z,2196.00
2022-09-03T08:03:16.843Z,2336.00
2022-09-03T08:04:16.763Z,2400.00
2022-09-03T08:05:16.691Z,2512.00
2022-09-03T08:06:16.612Z,2668.00
2022-09-03T08:07:16.533Z,2792.00
2022-09-03T08:08:16.519Z,2832.00
2022-09-03T08:09:16.380Z,2856.00
2022-09-03T08:10:16.305Z,2932.00
2022-09-03T08:11:16.228Z,2912.00
2022-09-03T08:12:16.148Z,3064.00
2022-09-03T08:13:16.074Z,2808.00
2022-09-03T08:14:15.992Z,2736.00
2022-09-03T08:15:15.947Z,2680.00
2022-09-03T08:16:15.888Z,2760.00
2022-09-03T08:17:15.764Z,2624.00
2022-09-03T08:18:15.690Z,2660.00
2022-09-03T08:19:15.615Z,2772.00
2022-09-03T08:20:15.533Z,2820.00
2022-09-03T08:21:15.461Z,2812.00
2022-09-03T08:22:15.385Z,2684.00
2022-09-03T08:23:15.310Z,2544.00
2022-09-03T08:24:15.232Z,2472.00
2022-09-03T08:25:15.156Z,2412.00
2022-09-03T08:26:15.077Z,2324.00
2022-09-03T08:27:15.003Z,2264.00
2022-09-03T08:28:14.928Z,2336.00
2022-09-03T08:29:14.847Z,2308.00
2022-09-03T08:30:14.771Z,2260.00
2022-09-03T08:31:14.763Z,2196.00
2022-09-03T08:32:14.622Z,2116.00
2022-09-03T08:33:14.550Z,2060.00
2022-09-03T08:34:14.466Z,1976.00
2022-09-03T08:35:14.441Z,1732.00
2022-09-03T08:36:14.316Z,1668.00
2022-09-03T08:37:14.240Z,1604.00
2022-09-03T08:38:14.199Z,1592.00
2022-09-03T08:39:14.087Z,1620.00
2022-09-03T08:40:14.013Z,1656.00
2022-09-03T08:41:13.942Z,1720.00
2022-09-03T08:42:13.860Z,1604.00
2022-09-03T08:43:13.786Z,1548.00
2022-09-03T08:44:13.709Z,1500.00
2022-09-03T08:45:13.634Z,1480.00
2022-09-03T08:46:13.596Z,1516.00
2022-09-03T08:47:13.474Z,1504.00
2022-09-03T08:48:13.400Z,1540.00
2022-09-03T08:49:13.325Z,1596.00
2022-09-03T08:50:13.249Z,1664.00
2022-09-03T08:51:13.176Z,1716.00
2022-09-03T08:52:13.100Z,1784.00
2022-09-03T08:53:13.023Z,1904.00
2022-09-03T08:54:12.945Z,2004.00
2022-09-03T08:55:12.871Z,2156.00
2022-09-03T08:56:12.796Z,2300.00
2022-09-03T08:57:12.718Z,2352.00
2022-09-03T08:58:12.641Z,2432.00
2022-09-03T08:59:12.567Z,2484.00
2022-09-03T09:00:12.488Z,2524.00
2022-09-03T09:01:12.410Z,2600.00
2022-09-03T09:02:12.412Z,2680.00
2022-09-03T09:03:12.259Z,2724.00
2022-09-03T09:04:12.182Z,2836.00
2022-09-03T09:05:14.429Z,2920.00
2022-09-03T09:06:12.035Z,2780.00
2022-09-03T09:07:11.957Z,2792.00
2022-09-03T09:08:11.882Z,2876.00
2022-09-03T09:09:11.804Z,2860.00
2022-09-03T09:10:11.731Z,2788.00
2022-09-03T09:11:11.665Z,2848.00
2022-09-03T09:12:11.577Z,2740.00
2022-09-03T09:13:11.500Z,2840.00
2022-09-03T09:14:11.425Z,2756.00
2022-09-03T09:15:11.345Z,2828.00
2022-09-03T09:16:11.362Z,2892.00
2022-09-03T09:17:11.201Z,2856.00
2022-09-03T09:18:11.402Z,2828.00
2022-09-03T09:19:11.049Z,2828.00
2022-09-03T09:20:10.971Z,2712.00
2022-09-03T09:21:10.896Z,2572.00
2022-09-03T09:22:10.822Z,2320.00
2022-09-03T09:23:10.748Z,2372.00
2022-09-03T09:24:10.666Z,2124.00
2022-09-03T09:25:10.596Z,2028.00
2022-09-03T09:26:10.518Z,2020.00
2022-09-03T09:27:15.379Z,2040.00
2022-09-03T09:28:10.391Z,2032.00
2022-09-03T09:29:10.342Z,2044.00
2022-09-03T09:30:10.212Z,2096.00
2022-09-03T09:31:10.215Z,2188.00
2022-09-03T09:32:10.060Z,2240.00
2022-09-03T09:33:09.992Z,2180.00
2022-09-03T09:34:09.913Z,2088.00
2022-09-03T09:35:09.840Z,2020.00
2022-09-03T09:36:09.763Z,1928.00
2022-09-03T09:37:09.685Z,1924.00
2022-09-03T09:38:09.612Z,1864.00
2022-09-03T09:39:09.539Z,1824.00
2022-09-03T09:40:09.462Z,1640.00
2022-09-03T09:41:09.388Z,1552.00
2022-09-03T09:42:09.312Z,1468.00
2022-09-03T09:43:09.235Z,1440.00
2022-09-03T09:44:09.159Z,1496.00
2022-09-03T09:45:09.083Z,1656.00
2022-09-03T09:46:09.081Z,1872.00
2022-09-03T09:47:08.934Z,1976.00
2022-09-03T09:48:08.857Z,2016.00
2022-09-03T09:49:08.785Z,1992.00
2022-09-03T09:50:08.708Z,1972.00
2022-09-03T09:51:08.637Z,1964.00
2022-09-03T09:52:08.553Z,1984.00
2022-09-03T09:53:08.490Z,1992.00
2022-09-03T09:54:08.400Z,2004.00
2022-09-03T09:55:08.328Z,2024.00
2022-09-03T09:56:08.259Z,2032.00
2022-09-03T09:57:08.172Z,2032.00
2022-09-03T09:58:10.955Z,2044.00
2022-09-03T09:59:08.028Z,2056.00
2022-09-03T10:00:07.948Z,2072.00
2022-09-03T10:01:07.936Z,2100.00
2022-09-03T10:02:07.799Z,2116.00
2022-09-03T10:03:07.757Z,2120.00
2022-09-03T10:04:07.647Z,2164.00
2022-09-03T10:05:07.569Z,2192.00
2022-09-03T10:06:07.495Z,2228.00
2022-09-03T10:07:07.423Z,2272.00
2022-09-03T10:08:07.350Z,2292.00
2022-09-03T10:09:07.277Z,2328.00
2022-09-03T10:10:07.194Z,2344.00
2022-09-03T10:11:07.129Z,2360.00
2022-09-03T10:12:07.041Z,2372.00
2022-09-03T10:13:06.965Z,2384.00
2022-09-03T10:14:06.893Z,2412.00
2022-09-03T10:15:06.815Z,2448.00
2022-09-03T10:16:06.781Z,2504.00
2022-09-03T10:17:06.665Z,2564.00
2022-09-03T10:18:06.590Z,2632.00
2022-09-03T10:19:06.521Z,2652.00
2022-09-03T10:20:06.439Z,2688.00
2022-09-03T10:21:06.371Z,2716.00
2022-09-03T10:22:06.292Z,2740.00
2022-09-03T10:23:06.213Z,2756.00
2022-09-03T10:24:06.759Z,2804.00
2022-09-03T10:25:06.070Z,2872.00
2022-09-03T10:26:05.993Z,2984.00
2022-09-03T10:27:05.918Z,3144.00
2022-09-03T10:28:05.839Z,3388.00
2022-09-03T10:29:05.769Z,3588.00
2022-09-03T10:30:05.691Z,3796.00
2022-09-03T10:31:05.687Z,4048.00
2022-09-03T10:32:05.547Z,4340.00
2022-09-03T10:33:05.462Z,4384.00
2022-09-03T10:34:05.386Z,4076.00
2022-09-03T10:35:05.313Z,3700.00
2022-09-03T10:36:05.240Z,3380.00
2022-09-03T10:37:05.161Z,3136.00
2022-09-03T10:38:05.090Z,3244.00
2022-09-03T10:39:05.014Z,3696.00
2022-09-03T10:40:05.007Z,3808.00
2022-09-03T10:41:04.871Z,3968.00
2022-09-03T10:42:04.792Z,3616.00
2022-09-03T10:43:04.716Z,2488.00
2022-09-03T10:44:04.646Z,4460.00
2022-09-03T10:45:04.568Z,4232.00
2022-09-03T10:46:04.576Z,3728.00
2022-09-03T10:47:04.422Z,3920.00
2022-09-03T10:48:04.347Z,3808.00
2022-09-03T10:49:04.272Z,4124.00
2022-09-03T10:50:04.198Z,4124.00
2022-09-03T10:51:04.127Z,4144.00
2022-09-03T10:52:04.050Z,4200.00
2022-09-03T10:53:03.977Z,4152.00
2022-09-03T10:54:03.901Z,4072.00
2022-09-03T10:55:03.821Z,4096.00
2022-09-03T10:56:03.758Z,4068.00
2022-09-03T10:57:03.673Z,4156.00
2022-09-03T10:58:03.604Z,4156.00
2022-09-03T10:59:03.528Z,4184.00
2022-09-03T11:00:03.456Z,4096.00
2022-09-03T11:01:03.436Z,4072.00
2022-09-03T11:02:03.308Z,4204.00
2022-09-03T11:03:03.297Z,4440.00
2022-09-03T11:04:03.161Z,4688.00
2022-09-03T11:05:03.085Z,4972.00
2022-09-03T11:06:03.015Z,5256.00
2022-09-03T11:07:02.941Z,5600.00
2022-09-03T11:08:02.872Z,5876.00
2022-09-03T11:09:06.480Z,5992.00
2022-09-03T11:10:02.718Z,6328.00
2022-09-03T11:11:02.644Z,6256.00
2022-09-03T11:12:02.572Z,6456.00
2022-09-03T11:13:02.507Z,6772.00
2022-09-03T11:14:02.419Z,6944.00
2022-09-03T11:15:02.347Z,6928.00
2022-09-03T11:16:02.369Z,7116.00
2022-09-03T11:17:02.195Z,7156.00
2022-09-03T11:18:02.127Z,6996.00
2022-09-03T11:19:02.050Z,6940.00
2022-09-03T11:20:01.977Z,7068.00
2022-09-03T11:21:01.915Z,7040.00
2022-09-03T11:22:01.829Z,6752.00
2022-09-03T11:23:01.765Z,6180.00
2022-09-03T11:24:01.685Z,5828.00
2022-09-03T11:25:01.615Z,5812.00
2022-09-03T11:26:01.548Z,5948.00
2022-09-03T11:27:01.463Z,6072.00
2022-09-03T11:28:01.390Z,6128.00
2022-09-03T11:29:01.321Z,6040.00
2022-09-03T11:30:01.254Z,5948.00
2022-09-03T11:31:01.223Z,5876.00
2022-09-03T11:32:01.099Z,5828.00
2022-09-03T11:33:01.029Z,5724.00
2022-09-03T11:34:00.964Z,5572.00
2022-09-03T11:35:00.893Z,5348.00
2022-09-03T11:36:00.822Z,5092.00
2022-09-03T11:37:00.748Z,4968.00
2022-09-03T11:38:00.666Z,4892.00
2022-09-03T11:39:00.598Z,4860.00
2022-09-03T11:40:00.595Z,4848.00
2022-09-03T11:41:00.450Z,4888.00
2022-09-03T11:42:00.402Z,4956.00
2022-09-03T11:43:00.304Z,5136.00
2022-09-03T11:44:04.509Z,5232.00
2022-09-03T11:45:00.163Z,5324.00
2022-09-03T11:46:00.169Z,5456.00
2022-09-03T11:47:00.029Z,5072.00
2022-09-03T11:47:59.941Z,4960.00
2022-09-03T11:48:59.871Z,4828.00
2022-09-03T11:49:59.800Z,4868.00
2022-09-03T11:50:59.734Z,4944.00
2022-09-03T11:51:59.656Z,5008.00
2022-09-03T11:52:59.590Z,4968.00
2022-09-03T11:53:59.510Z,4916.00
2022-09-03T11:54:59.440Z,4772.00
2022-09-03T11:55:59.371Z,4816.00
2022-09-03T11:56:59.291Z,4752.00
2022-09-03T11:57:59.221Z,4812.00
2022-09-03T11:58:59.148Z,4888.00
2022-09-03T11:59:59.078Z,4752.00
2022-09-03T12:00:58.998Z,4708.00
2022-09-03T12:01:58.944Z,4648.00
2022-09-03T12:02:59.306Z,4580.00
2022-09-03T12:03:58.781Z,4664.00
2022-09-03T12:04:58.789Z,4560.00
2022-09-03T12:05:58.643Z,4468.00
2022-09-03T12:06:58.563Z,4704.00
2022-09-03T12:07:58.497Z,4680.00
2022-09-03T12:08:58.434Z,4536.00
2022-09-03T12:09:58.354Z,4188.00
2022-09-03T12:10:58.281Z,3792.00
2022-09-03T12:11:58.204Z,3556.00
2022-09-03T12:12:58.136Z,3472.00
2022-09-03T12:13:58.064Z,3432.00
2022-09-03T12:14:57.989Z,3496.00
2022-09-03T12:15:57.981Z,3664.00
2022-09-03T12:16:57.844Z,3816.00
2022-09-03T12:17:57.778Z,4112.00
2022-09-03T12:18:57.700Z,3664.00
2022-09-03T12:19:57.627Z,3748.00
2022-09-03T12:20:57.556Z,3784.00
2022-09-03T12:21:57.481Z,3736.00
2022-09-03T12:22:57.416Z,3976.00
2022-09-03T12:23:58.322Z,4124.00
2022-09-03T12:24:57.263Z,4720.00
2022-09-03T12:25:57.208Z,3768.00
2022-09-03T12:26:57.121Z,3512.00
2022-09-03T12:27:57.049Z,3192.00
2022-09-03T12:28:56.978Z,2944.00
2022-09-03T12:29:56.900Z,2728.00
2022-09-03T12:30:56.923Z,2628.00
2022-09-03T12:31:56.760Z,2588.00
2022-09-03T12:32:56.688Z,2576.00
2022-09-03T12:33:56.620Z,2560.00